Time;durP1;ratioP1;P1;durP2;ratioP2;P2;SDS_P1;SDS_P2;PMS_P1;PMS_P2;Temp;Humidity;BMP_temperature;BMP_pressure;BME280_temperature;BME280_humidity;BME280_pressure;Samples;Min_cycle;Max_cycle;Signal;HPM_P1;HPM_P2
2022/07/31 00:01:22;;;;;;;2.58;2.15;;;;;;;28.26;37.77;99140.97;5011471;28;20037;-75
2022/07/31 00:03:48;;;;;;;3.22;2.10;;;;;;;28.41;38.04;99152.31;5011196;28;20544;-75
2022/07/31 00:06:13;;;;;;;1.90;1.70;;;;;;;28.55;37.86;99159.63;5011223;28;20026;-74
2022/07/31 00:08:38;;;;;;;2.47;2.03;;;;;;;28.68;37.52;99189.47;5011198;28;20026;-75
2022/07/31 00:11:04;;;;;;;2.17;2.08;;;;;;;28.24;37.91;99125.00;5014326;28;20482;-75
2022/07/31 00:13:29;;;;;;;2.30;2.10;;;;;;;28.27;37.90;99124.38;5014882;28;20076;-75
2022/07/31 00:15:55;;;;;;;4.72;2.17;;;;;;;28.34;37.68;99124.78;5014514;28;20045;-75
2022/07/31 00:18:20;;;;;;;2.15;1.95;;;;;;;28.70;37.79;99162.00;5014728;28;20125;-75
2022/07/31 00:20:46;;;;;;;3.25;2.30;;;;;;;28.78;37.60;99170.22;5014609;28;20034;-75
2022/07/31 00:23:11;;;;;;;2.58;2.10;;;;;;;28.77;37.69;99167.81;5014487;28;20030;-75
2022/07/31 00:25:37;;;;;;;6.18;2.38;;;;;;;28.56;37.58;99115.06;5014318;28;20549;-75
2022/07/31 00:28:03;;;;;;;2.83;2.50;;;;;;;28.79;37.70;99150.09;5014349;28;20030;-75
2022/07/31 00:30:28;;;;;;;2.28;2.08;;;;;;;28.31;38.11;99084.66;5014527;28;20026;-75
2022/07/31 00:32:54;;;;;;;2.88;2.67;;;;;;;28.47;38.02;99110.38;5014423;28;20083;-74
2022/07/31 00:35:19;;;;;;;3.25;2.67;;;;;;;28.68;38.15;99137.84;5014484;28;20036;-75
2022/07/31 00:37:45;;;;;;;3.03;2.72;;;;;;;28.73;38.14;99131.50;5014439;28;20022;-75
2022/07/31 00:40:14;;;;;;;2.83;2.28;;;;;;;28.51;38.10;99090.72;5013986;28;20076;-75
2022/07/31 00:42:40;;;;;;;2.72;2.53;;;;;;;28.80;37.98;99113.66;5014153;28;20030;-75
2022/07/31 00:45:06;;;;;;;3.13;2.85;;;;;;;28.82;38.25;99105.19;5014271;28;20033;-75
2022/07/31 00:47:32;;;;;;;3.47;2.75;;;;;;;28.47;38.13;99050.63;5014096;28;20036;-75
2022/07/31 00:49:57;;;;;;;3.40;2.85;;;;;;;28.80;38.23;99096.56;5014110;28;20017;-75
2022/07/31 00:52:24;;;;;;;3.38;3.08;;;;;;;28.83;38.53;99095.13;5014056;28;20429;-75
2022/07/31 00:54:49;;;;;;;4.35;3.20;;;;;;;28.79;38.48;99098.47;5013864;28;20022;-75
2022/07/31 00:57:15;;;;;;;3.67;3.00;;;;;;;28.68;38.84;99107.97;5013910;28;20022;-75
2022/07/31 00:59:41;;;;;;;3.88;3.50;;;;;;;28.68;39.46;99099.03;5013944;28;20022;-75
2022/07/31 01:02:09;;;;;;;4.10;3.80;;;;;;;28.56;39.84;99083.28;5014039;28;20092;-75
2022/07/31 01:04:35;;;;;;;3.75;3.42;;;;;;;28.29;39.67;99045.34;5012394;28;20039;-75
2022/07/31 01:07:01;;;;;;;3.67;3.38;;;;;;;28.33;39.83;99059.91;5013619;28;20109;-75
2022/07/31 01:09:26;;;;;;;4.00;3.70;;;;;;;28.07;40.15;99024.34;5013497;28;20017;-75
2022/07/31 01:12:00;;;;;;;5.00;4.20;;;;;;;28.50;40.54;99106.22;5013547;28;20026;-75
2022/07/31 01:14:39;;;;;;;3.95;3.55;;;;;;;28.51;40.64;99117.91;5012233;28;20084;-75
2022/07/31 01:17:06;;;;;;;4.28;3.80;;;;;;;28.47;40.51;99121.22;5013315;28;20042;-75
2022/07/31 01:19:36;;;;;;;4.30;3.90;;;;;;;28.50;40.68;99122.53;5013510;28;20025;-75
2022/07/31 01:22:36;;;;;;;4.40;3.13;;;;;;;28.46;40.97;99111.47;5011968;28;20014;-75
2022/07/31 01:25:11;;;;;;;4.00;3.60;;;;;;;28.47;40.97;99095.97;5012030;28;20112;-75
2022/07/31 01:27:45;;;;;;;6.00;3.90;;;;;;;28.49;41.11;99115.50;5013338;28;20018;-75
2022/07/31 01:30:11;;;;;;;4.35;3.92;;;;;;;28.52;40.68;99114.88;5013382;28;20556;-75
2022/07/31 01:32:40;;;;;;;4.70;3.53;;;;;;;28.29;40.90;99086.06;5013266;28;20105;-75
2022/07/31 01:35:20;;;;;;;4.82;3.63;;;;;;;28.31;41.14;99083.84;5013254;28;20026;-75
2022/07/31 01:38:10;;;;;;;4.32;3.58;;;;;;;28.23;41.33;99087.25;5013226;28;20487;-75
2022/07/31 01:40:56;;;;;;;4.13;3.75;;;;;;;28.18;41.62;99088.94;5013173;28;20022;-75
2022/07/31 01:43:28;;;;;;;4.43;3.70;;;;;;;28.29;41.43;99119.47;5013066;28;20014;-75
2022/07/31 01:45:56;;;;;;;5.18;4.18;;;;;;;28.12;41.63;99094.81;5011704;28;20080;-75
2022/07/31 01:48:22;;;;;;;5.55;3.70;;;;;;;28.11;41.49;99098.63;5012955;28;20022;-75
2022/07/31 01:50:51;;;;;;;4.97;4.20;;;;;;;28.02;41.64;99093.09;5012943;28;20022;-75
2022/07/31 01:53:20;;;;;;;4.20;3.78;;;;;;;28.17;41.86;99119.13;5012894;28;20029;-75
2022/07/31 01:55:47;;;;;;;5.10;3.92;;;;;;;27.76;42.06;99056.75;5011546;28;20084;-75
2022/07/31 01:58:15;;;;;;;6.07;4.20;;;;;;;28.09;41.99;99127.97;5012807;28;20025;-75
2022/07/31 02:00:42;;;;;;;4.50;4.10;;;;;;;27.65;42.40;99045.31;5012968;28;20018;-75
2022/07/31 02:03:09;;;;;;;4.70;4.03;;;;;;;28.01;42.30;99104.25;5011397;28;20036;-75
2022/07/31 02:05:35;;;;;;;4.25;3.95;;;;;;;28.01;42.39;99113.22;5012726;28;20033;-75
2022/07/31 02:08:03;;;;;;;4.45;4.05;;;;;;;27.67;42.69;99064.81;5012725;28;20026;-75
2022/07/31 02:10:30;;;;;;;6.72;4.25;;;;;;;27.69;42.79;99081.56;5012236;28;20569;-75
2022/07/31 02:12:57;;;;;;;4.65;3.88;;;;;;;27.99;42.72;99109.19;5012419;28;20481;-75
2022/07/31 02:15:23;;;;;;;5.13;4.28;;;;;;;27.62;42.78;99056.75;5012453;28;20033;-75
2022/07/31 02:17:50;;;;;;;7.72;4.30;;;;;;;27.95;42.88;99113.63;5012267;28;20130;-75
2022/07/31 02:20:15;;;;;;;5.75;4.15;;;;;;;27.67;42.82;99069.41;5012598;28;20457;-75
2022/07/31 02:22:41;;;;;;;4.43;4.03;;;;;;;27.41;43.03;99045.47;5012506;28;20022;-75
2022/07/31 02:25:07;;;;;;;4.10;3.80;;;;;;;27.75;42.87;99102.06;5012144;28;20057;-75
2022/07/31 02:27:33;;;;;;;5.43;4.07;;;;;;;27.77;42.92;99082.78;5012040;28;20055;-75
2022/07/31 02:30:01;;;;;;;4.57;3.90;;;;;;;27.45;42.68;99038.31;5012400;28;20465;-75
2022/07/31 02:32:30;;;;;;;4.22;3.92;;;;;;;27.36;42.74;99017.63;5011605;28;20025;-75
2022/07/31 02:35:00;;;;;;;4.07;3.72;;;;;;;27.68;42.90;99081.88;5012046;28;20048;-75
2022/07/31 02:37:28;;;;;;;4.10;3.67;;;;;;;27.71;43.11;99100.25;5011934;28;20100;-75
2022/07/31 02:39:54;;;;;;;4.43;3.65;;;;;;;27.63;43.24;99096.34;5012134;28;20560;-75
2022/07/31 02:42:21;;;;;;;4.47;3.50;;;;;;;27.69;43.11;99087.00;5011973;28;20025;-75
2022/07/31 02:44:48;;;;;;;4.25;3.90;;;;;;;27.72;43.19;99093.72;5010837;28;20022;-75
2022/07/31 02:47:14;;;;;;;4.05;3.70;;;;;;;27.67;43.21;99093.84;5011918;28;20025;-75
2022/07/31 02:49:40;;;;;;;6.28;4.20;;;;;;;27.70;43.31;99085.91;5010692;28;20088;-74
2022/07/31 02:52:07;;;;;;;4.13;3.83;;;;;;;27.61;43.46;99079.56;5011914;28;20029;-75
2022/07/31 02:54:34;;;;;;;4.43;3.55;;;;;;;27.69;43.57;99106.00;5011670;28;20108;-75
2022/07/31 02:57:01;;;;;;;5.18;4.03;;;;;;;27.70;43.60;99099.47;5011665;28;20050;-75
2022/07/31 02:59:26;;;;;;;5.80;4.60;;;;;;;27.61;43.74;99109.41;5012025;28;20113;-75
2022/07/31 03:01:53;;;;;;;4.25;3.88;;;;;;;27.58;43.86;99107.25;5011832;28;20093;-75
2022/07/31 03:04:19;;;;;;;4.88;3.75;;;;;;;27.54;43.96;99109.78;5010290;28;20034;-75
2022/07/31 03:06:44;;;;;;;4.00;3.65;;;;;;;27.04;44.25;99043.72;5011601;28;20041;-75
2022/07/31 03:09:10;;;;;;;5.38;4.30;;;;;;;27.30;44.64;99103.69;5010461;28;20033;-75
2022/07/31 03:11:36;;;;;;;5.35;4.85;;;;;;;27.16;44.55;99102.84;5011684;28;20097;-75
2022/07/31 03:14:03;;;;;;;4.90;3.95;;;;;;;26.99;45.05;99084.44;5011533;28;20410;-75
2022/07/31 03:16:30;;;;;;;4.88;4.13;;;;;;;27.04;45.18;99099.81;5011364;28;20522;-75
2022/07/31 03:18:56;;;;;;;5.03;4.10;;;;;;;26.98;45.19;99088.25;5011604;28;20457;-75
2022/07/31 03:21:23;;;;;;;5.38;4.57;;;;;;;27.11;45.12;99114.59;5011560;28;20030;-75
2022/07/31 03:23:49;;;;;;;5.10;4.60;;;;;;;27.01;45.36;99103.91;5011862;28;20430;-75
2022/07/31 03:26:15;;;;;;;4.32;3.90;;;;;;;27.09;45.44;99122.22;5011342;28;20026;-75
2022/07/31 03:28:42;;;;;;;4.55;4.10;;;;;;;26.65;45.54;99063.00;5010159;28;20560;-75
2022/07/31 03:31:07;;;;;;;5.22;4.38;;;;;;;26.96;45.92;99124.84;5011494;28;20520;-75
2022/07/31 03:33:33;;;;;;;4.88;4.45;;;;;;;26.89;46.23;99123.31;5011456;28;20022;-75
2022/07/31 03:35:59;;;;;;;4.35;4.05;;;;;;;26.84;46.40;99123.41;5010151;28;20030;-75
2022/07/31 03:38:24;;;;;;;4.68;4.28;;;;;;;26.68;46.68;99096.81;5011294;28;20524;-75
2022/07/31 03:40:50;;;;;;;5.03;4.57;;;;;;;26.52;47.14;99091.63;5009991;28;20022;-75
2022/07/31 03:43:16;;;;;;;4.68;4.28;;;;;;;26.36;47.24;99062.38;5012203;28;20033;-75
2022/07/31 03:45:44;;;;;;;5.30;4.70;;;;;;;26.63;47.41;99143.72;5015443;28;20053;-75
2022/07/31 03:48:10;;;;;;;5.03;4.57;;;;;;;26.60;47.25;99128.06;5013752;28;20028;-75
2022/07/31 03:50:36;;;;;;;6.13;4.70;;;;;;;26.42;47.59;99118.06;5015146;28;20053;-75
2022/07/31 03:53:03;;;;;;;6.20;4.72;;;;;;;26.43;48.14;99125.88;5014939;28;20026;-74
2022/07/31 03:55:29;;;;;;;6.75;4.60;;;;;;;26.37;48.22;99120.81;5013861;28;20026;-75
2022/07/31 03:57:57;;;;;;;5.95;4.38;;;;;;;26.38;48.14;99122.44;5015580;28;20022;-75
2022/07/31 04:00:26;;;;;;;4.85;4.43;;;;;;;26.40;48.11;99126.47;5013787;28;20022;-75
2022/07/31 04:02:53;;;;;;;4.70;4.30;;;;;;;26.31;48.15;99116.56;5014900;28;20022;-75
2022/07/31 04:05:18;;;;;;;4.35;3.90;;;;;;;26.32;48.02;99126.28;5015024;28;20105;-75
2022/07/31 04:07:44;;;;;;;5.03;3.63;;;;;;;26.19;48.41;99128.59;5014729;28;20072;-74
2022/07/31 04:10:09;;;;;;;4.18;3.78;;;;;;;26.05;48.10;99103.34;5014963;28;20030;-75
2022/07/31 04:12:34;;;;;;;5.70;3.75;;;;;;;26.13;48.19;99113.53;5015252;28;20021;-75
2022/07/31 04:15:00;;;;;;;4.38;3.45;;;;;;;26.27;47.87;99135.28;5013290;28;20025;-75
2022/07/31 04:17:25;;;;;;;3.90;3.50;;;;;;;26.15;48.06;99129.47;5014503;28;20053;-75
2022/07/31 04:19:51;;;;;;;3.90;3.55;;;;;;;26.15;48.44;99121.34;5014900;28;20030;-75
2022/07/31 04:22:16;;;;;;;6.13;3.92;;;;;;;26.12;48.42;99111.13;5014663;28;20495;-74
2022/07/31 04:24:42;;;;;;;5.00;4.20;;;;;;;25.89;48.59;99105.41;5014425;28;20486;-75
2022/07/31 04:27:07;;;;;;;4.63;3.83;;;;;;;25.67;48.52;99072.69;5014250;28;20014;-75
2022/07/31 04:29:33;;;;;;;5.38;3.78;;;;;;;26.18;47.95;99124.28;5014477;28;20140;-75
2022/07/31 04:31:58;;;;;;;4.93;3.75;;;;;;;25.96;47.80;99086.94;5014482;28;20010;-74
2022/07/31 04:34:24;;;;;;;4.72;3.75;;;;;;;26.28;47.83;99134.97;5014605;28;20014;-75
2022/07/31 04:36:49;;;;;;;4.38;3.97;;;;;;;26.24;47.81;99146.69;5014294;28;20022;-75
2022/07/31 04:39:15;;;;;;;4.22;3.38;;;;;;;26.23;47.69;99148.59;5014194;28;20088;-75
2022/07/31 04:41:40;;;;;;;4.47;3.50;;;;;;;26.18;47.77;99145.13;5014320;28;20025;-75
2022/07/31 04:44:06;;;;;;;4.20;3.80;;;;;;;26.23;47.76;99151.28;5014210;28;20022;-75
2022/07/31 04:46:31;;;;;;;3.70;3.40;;;;;;;26.14;48.27;99152.22;5014224;28;20022;-75
2022/07/31 04:48:56;;;;;;;5.32;3.70;;;;;;;25.95;47.90;99122.38;5014154;28;20033;-75
2022/07/31 04:51:23;;;;;;;4.22;3.70;;;;;;;26.17;47.91;99146.22;5014195;28;20127;-75
2022/07/31 04:53:49;;;;;;;3.75;3.40;;;;;;;26.30;47.92;99148.22;5014048;28;20033;-75
2022/07/31 04:59:07;;;;;;;4.25;3.38;;;;;;;26.29;47.68;99163.66;5008548;28;20037;-75
2022/07/31 05:01:33;;;;;;;4.05;3.65;;;;;;;26.25;47.87;99151.00;5013960;28;20574;-75
2022/07/31 05:03:59;;;;;;;4.03;3.55;;;;;;;26.28;47.96;99147.72;5013778;28;20101;-75
2022/07/31 05:06:38;;;;;;;4.18;3.78;;;;;;;26.02;48.40;99116.66;5013767;28;20030;-75
2022/07/31 05:09:06;;;;;;;4.00;3.50;;;;;;;26.25;48.01;99156.41;5013802;28;20030;-74
2022/07/31 05:11:33;;;;;;;4.32;3.40;;;;;;;26.34;47.78;99151.19;5013709;28;20030;-75
2022/07/31 05:13:59;;;;;;;5.25;4.15;;;;;;;26.44;47.69;99157.28;5013711;28;20029;-75
2022/07/31 05:16:26;;;;;;;4.47;3.33;;;;;;;26.43;47.20;99154.84;5013373;28;20046;-75
2022/07/31 05:18:53;;;;;;;3.80;3.45;;;;;;;26.50;47.37;99153.41;5013662;28;20026;-75
2022/07/31 05:21:18;;;;;;;4.93;3.72;;;;;;;26.54;47.20;99140.88;5013522;28;20076;-75
2022/07/31 05:23:46;;;;;;;5.57;4.03;;;;;;;26.60;46.73;99147.84;5013549;28;20535;-75
2022/07/31 05:26:13;;;;;;;5.28;3.83;;;;;;;26.37;46.72;99110.81;5013288;28;20503;-74
2022/07/31 05:28:39;;;;;;;5.00;3.40;;;;;;;26.29;46.76;99096.00;5013358;28;20546;-75
2022/07/31 05:31:05;;;;;;;3.65;3.30;;;;;;;26.68;46.45;99150.97;5013101;28;20108;-75
2022/07/31 05:33:31;;;;;;;3.38;3.13;;;;;;;26.22;46.49;99083.91;5013233;28;20491;-75
2022/07/31 05:35:57;;;;;;;5.60;3.63;;;;;;;26.34;46.21;99107.88;5013278;28;20036;-75
2022/07/31 05:38:22;;;;;;;3.65;3.03;;;;;;;26.42;46.17;99115.34;5013185;28;20022;-75
2022/07/31 05:40:48;;;;;;;3.95;3.15;;;;;;;26.53;46.45;99160.94;5012860;28;20810;-75
2022/07/31 05:43:14;;;;;;;6.18;3.25;;;;;;;26.30;46.08;99094.09;5012852;28;20026;-75
2022/07/31 05:45:39;;;;;;;3.97;3.05;;;;;;;26.68;46.09;99150.97;5012984;28;20025;-75
2022/07/31 05:48:05;;;;;;;4.07;3.10;;;;;;;26.73;45.71;99159.84;5012718;28;20439;-75
2022/07/31 05:50:30;;;;;;;3.65;3.13;;;;;;;26.27;45.61;99083.84;5012824;28;20017;-75
2022/07/31 05:52:56;;;;;;;3.92;2.90;;;;;;;26.72;45.57;99150.09;5011504;28;20026;-75
2022/07/31 05:55:21;;;;;;;4.38;3.13;;;;;;;26.69;45.65;99139.84;5012745;28;20049;-75
2022/07/31 05:57:47;;;;;;;3.25;2.95;;;;;;;26.86;45.10;99150.19;5012918;28;20100;-75
2022/07/31 06:00:15;;;;;;;5.13;2.92;;;;;;;26.67;45.16;99100.63;5012865;28;20030;-74
2022/07/31 06:02:40;;;;;;;3.95;3.33;;;;;;;26.91;45.20;99120.31;5013146;28;20024;-75
2022/07/31 06:05:06;;;;;;;3.58;3.28;;;;;;;26.90;44.79;99107.88;5012740;28;20019;-75
2022/07/31 06:07:32;;;;;;;4.78;3.47;;;;;;;26.96;44.75;99114.81;5011575;28;20084;-75
2022/07/31 06:09:57;;;;;;;4.60;3.45;;;;;;;27.22;44.72;99156.69;5011165;28;20029;-75
2022/07/31 06:12:23;;;;;;;5.47;3.60;;;;;;;27.01;44.68;99109.34;5012569;28;20100;-75
2022/07/31 06:14:48;;;;;;;3.88;3.55;;;;;;;27.27;44.70;99146.84;5011294;28;20033;-75
2022/07/31 06:17:13;;;;;;;4.15;3.20;;;;;;;27.15;44.54;99121.03;5012260;28;20053;-75
2022/07/31 06:19:39;;;;;;;4.25;3.30;;;;;;;27.25;44.42;99130.06;5012626;28;20026;-75
2022/07/31 06:22:04;;;;;;;3.85;3.55;;;;;;;26.89;44.68;99079.16;5012579;28;20097;-75
2022/07/31 06:24:31;;;;;;;3.45;3.15;;;;;;;27.40;44.71;99138.75;5011203;28;20033;-75
2022/07/31 06:27:00;;;;;;;4.18;3.78;;;;;;;27.50;44.53;99140.50;5010922;28;20026;-75
2022/07/31 06:29:29;;;;;;;4.47;3.70;;;;;;;27.34;44.37;99109.31;5012428;28;20050;-75
2022/07/31 06:31:55;;;;;;;4.15;3.28;;;;;;;27.61;44.10;99143.84;5010749;28;20021;-75
2022/07/31 06:34:21;;;;;;;5.30;3.38;;;;;;;27.61;44.11;99146.56;5012323;28;20026;-75
2022/07/31 06:36:46;;;;;;;3.67;3.38;;;;;;;27.65;44.01;99137.53;5012053;28;20410;-75
2022/07/31 06:39:12;;;;;;;3.88;3.55;;;;;;;27.74;43.65;99133.03;5011896;28;20521;-75
2022/07/31 06:41:43;;;;;;;3.40;3.10;;;;;;;27.42;43.93;99085.03;5011797;28;20021;-75
2022/07/31 06:44:09;;;;;;;4.90;3.60;;;;;;;27.65;43.65;99087.91;5012060;28;20022;-75
2022/07/31 06:46:35;;;;;;;4.70;3.90;;;;;;;27.61;43.49;99076.06;5011985;28;20487;-75
2022/07/31 06:49:01;;;;;;;3.70;3.40;;;;;;;27.78;43.21;99090.63;5011884;28;20033;-75
2022/07/31 06:51:26;;;;;;;5.05;3.78;;;;;;;28.13;43.15;99134.41;5011646;28;20501;-75
2022/07/31 06:53:52;;;;;;;4.43;4.03;;;;;;;28.13;42.98;99131.69;5011975;28;20014;-75
2022/07/31 06:56:17;;;;;;;4.05;3.70;;;;;;;28.21;43.07;99143.75;5012017;28;20026;-75
2022/07/31 06:58:42;;;;;;;4.90;3.97;;;;;;;28.26;42.87;99124.69;5011765;28;20025;-75
2022/07/31 07:01:08;;;;;;;5.82;4.07;;;;;;;28.34;42.73;99123.97;5011508;28;20477;-75
2022/07/31 07:03:33;;;;;;;4.57;4.03;;;;;;;27.96;42.89;99059.03;5011705;28;20029;-75
2022/07/31 07:05:58;;;;;;;4.85;4.20;;;;;;;27.94;42.73;99063.97;5011622;28;20101;-75
2022/07/31 07:08:24;;;;;;;5.47;4.97;;;;;;;28.30;42.72;99110.22;5011548;28;20032;-75
2022/07/31 07:10:49;;;;;;;5.50;5.00;;;;;;;28.52;42.56;99130.38;5011499;28;20021;-75
2022/07/31 07:13:15;;;;;;;5.13;4.63;;;;;;;28.53;42.66;99121.09;5011761;28;20022;-75
2022/07/31 07:15:40;;;;;;;5.45;4.35;;;;;;;28.27;42.14;99063.84;5010470;28;20117;-75
2022/07/31 07:18:06;;;;;;;6.95;6.32;;;;;;;28.70;42.43;99118.53;5011416;28;20068;-75
2022/07/31 07:20:31;;;;;;;7.22;4.60;;;;;;;28.72;41.86;99127.97;5011584;28;20026;-75
2022/07/31 07:22:57;;;;;;;4.95;4.38;;;;;;;28.73;41.98;99126.88;5011517;28;20159;-75
2022/07/31 07:25:22;;;;;;;5.38;4.82;;;;;;;28.86;42.14;99127.97;5011611;28;20026;-75
2022/07/31 07:27:48;;;;;;;5.53;5.03;;;;;;;28.93;41.40;99113.94;5011356;28;20033;-75
2022/07/31 07:30:13;;;;;;;5.53;5.13;;;;;;;28.80;41.33;99083.78;5011465;28;20061;-75
2022/07/31 07:32:39;;;;;;;5.30;4.85;;;;;;;29.18;41.19;99126.91;5010033;28;20133;-75
2022/07/31 07:35:05;;;;;;;6.22;5.63;;;;;;;29.14;41.23;99104.19;5011489;28;20026;-75
2022/07/31 07:37:31;;;;;;;7.05;5.40;;;;;;;28.78;40.75;99042.53;5011422;28;20025;-75
2022/07/31 07:39:57;;;;;;;6.00;5.50;;;;;;;29.28;41.14;99117.69;5011298;28;20030;-75
2022/07/31 07:42:22;;;;;;;6.07;5.43;;;;;;;29.29;41.14;99116.59;5010218;28;20030;-75
2022/07/31 07:44:48;;;;;;;5.38;4.88;;;;;;;29.38;40.89;99120.16;5009982;28;20029;-75
2022/07/31 07:47:13;;;;;;;5.43;5.03;;;;;;;29.30;40.37;99099.16;5009908;28;20025;-75
2022/07/31 07:49:39;;;;;;;6.15;5.55;;;;;;;29.14;40.63;99060.69;5011132;28;20018;-75
2022/07/31 07:52:04;;;;;;;6.07;5.47;;;;;;;29.49;40.31;99105.19;5009777;28;20112;-75
2022/07/31 07:54:30;;;;;;;5.53;5.10;;;;;;;29.48;39.84;99079.13;5011163;28;20026;-75
2022/07/31 07:56:55;;;;;;;6.32;5.68;;;;;;;29.40;39.74;99063.53;5011189;28;20136;-75
2022/07/31 07:59:21;;;;;;;5.63;5.05;;;;;;;29.54;39.63;99075.13;5011060;28;20156;-75
2022/07/31 08:01:46;;;;;;;6.90;5.65;;;;;;;29.83;39.46;99117.34;5011140;28;20107;-75
2022/07/31 08:04:11;;;;;;;6.55;5.97;;;;;;;29.84;39.23;99110.81;5011195;28;20477;-75
2022/07/31 08:06:37;;;;;;;5.88;5.32;;;;;;;30.03;39.52;99131.22;5009778;28;20026;-75
2022/07/31 08:09:02;;;;;;;5.55;5.15;;;;;;;29.79;39.28;99078.28;5010978;28;20473;-75
2022/07/31 08:11:28;;;;;;;6.00;5.50;;;;;;;30.09;38.75;99101.91;5009664;28;20514;-75
2022/07/31 08:13:54;;;;;;;5.88;5.38;;;;;;;30.24;38.71;99128.69;5011049;28;20083;-75
2022/07/31 08:16:20;;;;;;;6.03;5.53;;;;;;;30.31;38.68;99118.13;5010851;28;20433;-75
2022/07/31 08:18:46;;;;;;;6.68;6.20;;;;;;;30.24;38.44;99101.47;5011000;28;20550;-75
2022/07/31 08:21:12;;;;;;;5.82;5.30;;;;;;;30.49;38.46;99116.25;5010897;28;20022;-75
2022/07/31 08:23:37;;;;;;;5.50;5.10;;;;;;;30.38;38.64;99090.44;5011328;28;20449;-75
2022/07/31 08:26:07;;;;;;;5.85;5.25;;;;;;;30.38;38.29;99089.63;5011061;28;20113;-75
2022/07/31 08:28:33;;;;;;;6.40;5.80;;;;;;;30.40;38.29;99071.03;5010856;28;20494;-75
2022/07/31 08:30:59;;;;;;;6.68;5.97;;;;;;;30.71;38.10;99098.97;5012304;28;20032;-75
2022/07/31 08:33:24;;;;;;;6.63;5.78;;;;;;;30.78;37.76;99090.31;5014377;28;20029;-75
2022/07/31 08:35:50;;;;;;;6.32;5.72;;;;;;;30.63;37.63;99056.97;5014107;28;20029;-75
2022/07/31 08:38:17;;;;;;;5.78;5.38;;;;;;;30.89;37.24;99116.13;5014085;28;20014;-75
2022/07/31 08:40:44;;;;;;;8.10;5.38;;;;;;;31.02;37.08;99106.94;5012666;28;20479;-75
2022/07/31 08:43:10;;;;;;;5.97;5.43;;;;;;;31.14;36.58;99107.09;5012703;28;20067;-75
2022/07/31 08:45:38;;;;;;;6.93;6.25;;;;;;;31.24;36.54;99108.72;5013908;28;20032;-74
2022/07/31 08:48:06;;;;;;;6.38;5.88;;;;;;;31.42;36.54;99091.16;5013868;28;20080;-74
2022/07/31 08:50:37;;;;;;;7.18;6.05;;;;;;;31.53;36.42;99103.31;5014125;28;20430;-74
2022/07/31 08:53:03;;;;;;;6.00;5.50;;;;;;;31.63;36.12;99096.69;5012751;28;20045;-74
2022/07/31 08:55:30;;;;;;;6.40;5.80;;;;;;;31.85;35.82;99101.91;5013912;28;20026;-75
2022/07/31 08:57:56;;;;;;;6.43;5.47;;;;;;;31.90;35.67;99090.81;5014018;28;20032;-74
2022/07/31 09:00:22;;;;;;;5.95;5.45;;;;;;;32.06;35.66;99096.53;5013785;28;20026;-74
2022/07/31 09:02:48;;;;;;;5.95;5.45;;;;;;;31.68;35.74;99065.69;5013934;28;20032;-74
2022/07/31 09:05:15;;;;;;;6.20;5.70;;;;;;;31.95;35.54;99105.41;5013736;28;20036;-74
2022/07/31 09:07:41;;;;;;;6.38;5.78;;;;;;;31.73;35.24;99054.63;5013407;28;20026;-74
2022/07/31 09:10:19;;;;;;;5.97;5.45;;;;;;;31.86;34.89;99046.19;5013663;28;20032;-74
2022/07/31 09:12:44;;;;;;;6.85;5.43;;;;;;;32.24;35.07;99091.78;5013770;28;20549;-74
2022/07/31 09:15:24;;;;;;;6.20;5.70;;;;;;;32.33;34.88;99089.78;5013492;28;20106;-74
2022/07/31 09:17:50;;;;;;;6.40;5.90;;;;;;;32.52;34.72;99090.09;5011981;28;20427;-75
2022/07/31 09:20:21;;;;;;;6.80;6.05;;;;;;;32.73;34.57;99086.59;5013542;28;20092;-75
2022/07/31 09:23:02;;;;;;;5.55;5.15;;;;;;;32.67;34.60;99052.34;5013472;28;20037;-75
2022/07/31 09:25:27;;;;;;;7.63;5.50;;;;;;;33.09;33.50;99081.25;5013346;28;20080;-74
2022/07/31 09:28:00;;;;;;;6.20;5.70;;;;;;;33.26;33.53;99085.72;5011735;28;20281;-75
2022/07/31 09:30:26;;;;;;;6.32;5.72;;;;;;;33.09;33.35;99055.84;5011945;28;20510;-75
2022/07/31 09:32:51;;;;;;;8.45;6.40;;;;;;;33.09;33.60;99080.47;5013250;28;20022;-75
2022/07/31 09:35:16;;;;;;;6.57;5.97;;;;;;;32.77;34.33;99082.03;5013409;28;20084;-74
2022/07/31 09:37:46;;;;;;;6.13;5.60;;;;;;;32.80;34.24;99082.19;5013313;28;20104;-75
2022/07/31 09:40:11;;;;;;;6.57;5.97;;;;;;;33.08;33.59;99079.66;5011756;28;20034;-74
2022/07/31 09:42:44;;;;;;;6.57;5.97;;;;;;;33.31;32.93;99068.31;5011672;28;20100;-74
2022/07/31 09:45:21;;;;;;;6.00;5.50;;;;;;;33.33;33.03;99014.84;5012958;28;20541;-75
2022/07/31 09:48:00;;;;;;;6.10;5.45;;;;;;;33.98;32.10;99072.47;5012975;28;20053;-74
2022/07/31 09:50:26;;;;;;;5.65;5.15;;;;;;;34.14;32.05;99070.63;5012947;28;20125;-75
2022/07/31 09:52:57;;;;;;;6.40;5.75;;;;;;;34.31;31.50;99039.44;5012965;28;20109;-75
2022/07/31 09:55:23;;;;;;;8.20;5.93;;;;;;;34.71;31.15;99053.91;5030254;28;20049;-75
2022/07/31 09:57:55;;;;;;;6.10;5.60;;;;;;;34.85;30.91;99056.28;5032557;28;20056;-75
2022/07/31 10:00:22;;;;;;;7.47;5.70;;;;;;;35.06;30.64;99050.59;5031316;28;20057;-75
2022/07/31 10:02:49;;;;;;;6.20;5.70;;;;;;;35.25;30.18;99049.88;5032557;28;20024;-74
2022/07/31 10:05:16;;;;;;;6.35;5.75;;;;;;;35.05;30.18;99027.03;5031096;28;20117;-74
2022/07/31 10:07:42;;;;;;;6.35;5.85;;;;;;;35.38;30.29;99045.94;5032258;28;20026;-75
2022/07/31 10:10:09;;;;;;;6.10;5.60;;;;;;;35.20;29.68;98985.06;5031190;28;20079;-74
2022/07/31 10:12:40;;;;;;;5.47;5.07;;;;;;;35.67;29.46;99033.66;5032346;28;20502;-75
2022/07/31 10:15:10;;;;;;;5.78;5.18;;;;;;;35.87;28.92;99029.88;5032308;28;20449;-75
2022/07/31 10:17:41;;;;;;;6.80;5.35;;;;;;;35.74;29.06;98984.41;5032165;28;20037;-75
2022/07/31 10:20:08;;;;;;;5.70;5.20;;;;;;;36.28;28.63;99025.66;5032178;28;20022;-75
2022/07/31 10:23:08;;;;;;;5.82;5.43;;;;;;;36.47;28.65;99030.41;5032083;28;20021;-76
2022/07/31 10:25:37;;;;;;;6.15;5.55;;;;;;;36.52;28.41;99019.09;5032071;28;20438;-75
2022/07/31 10:28:06;;;;;;;5.37;4.87;;;;;;;36.50;27.99;99004.91;5031982;28;20498;-77
2022/07/31 10:30:31;;;;;;;6.38;5.88;;;;;;;36.21;28.23;98978.75;5031884;28;20268;-77
2022/07/31 10:32:57;;;;;;;5.80;5.30;;;;;;;36.29;27.83;98986.03;5031906;28;20033;-74
2022/07/31 10:35:23;;;;;;;5.82;5.20;;;;;;;36.44;27.29;98975.31;5031898;28;20021;-75
2022/07/31 10:38:09;;;;;;;6.05;5.45;;;;;;;36.56;27.16;98955.91;5032002;28;20426;-75
2022/07/31 10:40:47;;;;;;;5.35;4.93;;;;;;;36.98;26.98;99004.63;5031862;28;20387;-75
2022/07/31 10:43:53;;;;;;;5.63;5.13;;;;;;;37.17;26.50;98999.88;5031810;28;20489;-75
2022/07/31 10:46:27;;;;;;;5.72;5.22;;;;;;;37.26;26.22;98983.13;4990380;28;20022;-75
2022/07/31 10:48:53;;;;;;;5.30;4.78;;;;;;;37.39;25.87;98997.50;4990302;28;20066;-75
2022/07/31 10:51:18;;;;;;;7.57;4.78;;;;;;;37.36;25.56;99006.50;5011865;28;20074;-75
2022/07/31 10:53:58;;;;;;;5.15;4.75;;;;;;;37.54;24.78;98991.81;5031028;28;20087;-74
2022/07/31 10:56:24;;;;;;;5.53;5.00;;;;;;;37.76;25.00;98990.19;5031817;28;20028;-75
2022/07/31 10:58:51;;;;;;;5.03;4.65;;;;;;;37.95;24.78;98997.56;5031668;28;20108;-75
2022/07/31 11:01:17;;;;;;;6.53;4.88;;;;;;;37.79;24.82;98950.88;5031480;28;20048;-75
2022/07/31 11:03:48;;;;;;;6.78;5.20;;;;;;;38.25;24.33;98983.78;5031576;28;20033;-75
2022/07/31 11:06:16;;;;;;;4.88;4.57;;;;;;;38.31;24.48;98982.28;5031548;28;20033;-75
2022/07/31 11:08:46;;;;;;;6.25;5.35;;;;;;;38.28;24.53;98983.03;5030077;28;20025;-75
2022/07/31 11:11:14;;;;;;;5.25;4.80;;;;;;;38.20;24.10;98953.00;5031299;28;20052;-75
2022/07/31 11:13:51;;;;;;;5.97;5.25;;;;;;;38.26;24.07;98944.00;5029996;28;20039;-74
2022/07/31 11:16:18;;;;;;;5.55;4.95;;;;;;;38.68;24.01;98970.50;5031128;28;20050;-75
2022/07/31 11:18:55;;;;;;;5.18;4.78;;;;;;;38.79;23.62;98960.34;5031328;28;20022;-75
2022/07/31 11:21:35;;;;;;;5.30;4.90;;;;;;;38.69;23.14;98969.31;5031309;28;20076;-75
2022/07/31 11:24:20;;;;;;;5.25;4.82;;;;;;;38.72;23.27;98960.28;5031240;28;20032;-75
2022/07/31 11:26:54;;;;;;;5.75;5.25;;;;;;;38.84;23.46;98973.81;5030879;28;20052;-75
2022/07/31 11:29:37;;;;;;;5.55;5.05;;;;;;;38.89;22.83;98959.66;5029635;28;20033;-75
2022/07/31 11:32:05;;;;;;;5.82;5.32;;;;;;;39.00;23.31;98957.75;5029817;28;20029;-75
2022/07/31 11:34:42;;;;;;;5.57;5.10;;;;;;;38.66;23.27;98945.25;5029898;28;20089;-75
2022/07/31 11:37:12;;;;;;;6.13;5.38;;;;;;;38.14;23.57;98946.97;5031142;28;20060;-75
2022/07/31 11:39:39;;;;;;;6.72;5.07;;;;;;;38.07;23.68;98941.38;5031009;28;20030;-75